Time,TemperatureF,DewpointF,PressureIn,WindDirection,WindDirectionDegrees,WindSpeedMPH,WindSpeedGustMPH,Humidity,HourlyPrecipIn,Conditions,Clouds,dailyrainin,SoftwareType,DateUTC
2013-03-18 00:04:00,24.8,12.5,29.78,WSW,252,3.0,3.0,59,0.00,CLR,CLR,0.00,WeatherDisplay:10.34,2013-03-18 06:04:00,
2013-03-18 00:09:00,25.1,12.4,29.78,WSW,252,2.0,0.0,58,0.00,CLR,CLR,0.00,WeatherDisplay:10.34,2013-03-18 06:09:00,
2013-03-18 00:14:00,26.4,12.8,29.78,West,265,2.0,8.0,56,0.00,CLR,CLR,0.00,WeatherDisplay:10.34,2013-03-18 06:14:00,
2013-03-18 00:19:00,26.7,12.3,29.78,West,261,4.0,4.0,54,0.00,CLR,CLR,0.00,WeatherDisplay:10.34,2013-03-18 06:19:00,
2013-03-18 00:24:00,26.9,12.5,29.77,West,279,2.0,7.0,54,0.00,CLR,CLR,0.00,WeatherDisplay:10.34,2013-03-18 06:24:00,
2013-03-18 00:29:00,27.1,12.6,29.77,WNW,283,5.0,7.0,54,0.00,CLR,CLR,0.00,WeatherDisplay:10.34,2013-03-18 06:29:00,
2013-03-18 00:34:00,27.4,12.9,29.77,WNW,288,1.0,2.0,54,0.00,CLR,CLR,0.00,WeatherDisplay:10.34,2013-03-18 06:34:00,
2013-03-18 00:39:00,27.3,12.8,29.77,West,261,2.0,5.0,54,0.00,CLR,CLR,0.00,WeatherDisplay:10.34,2013-03-18 06:39:00,
2013-03-18 00:44:00,27.2,12.7,29.77,West,266,2.0,3.0,54,0.00,CLR,CLR,0.00,WeatherDisplay:10.34,2013-03-18 06:44:00,
2013-03-18 00:49:00,27.1,12.6,29.77,West,275,1.0,2.0,54,0.00,CLR,CLR,0.00,WeatherDisplay:10.34,2013-03-18 06:49:00,
2013-03-18 00:54:00,26.8,12.4,29.78,WNW,284,3.0,3.0,54,0.00,CLR,CLR,0.00,WeatherDisplay:10.34,2013-03-18 06:54:00,
2013-03-18 00:59:00,26.5,12.1,29.78,WNW,284,0.0,2.0,54,0.00,CLR,CLR,0.00,WeatherDisplay:10.34,2013-03-18 06:59:00,
2013-03-18 01:04:00,26.4,12.4,29.77,WNW,285,3.0,3.0,55,0.00,CLR,CLR,0.00,WeatherDisplay:10.34,2013-03-18 07:04:00,
2013-03-18 01:09:00,26.2,12.2,29.77,WNW,285,1.0,2.0,55,0.00,CLR,CLR,0.00,WeatherDisplay:10.34,2013-03-18 07:09:00,
2013-03-18 01:14:00,26.0,12.4,29.77,NNW,338,4.0,7.0,56,0.00,CLR,CLR,0.00,WeatherDisplay:10.34,2013-03-18 07:14:00,
2013-03-18 01:19:00,25.6,12.1,29.77,NNW,346,5.0,7.0,56,0.00,CLR,CLR,0.00,WeatherDisplay:10.34,2013-03-18 07:19:00,
2013-03-18 01:24:00,25.2,12.1,29.78,North,355,4.0,4.0,57,0.00,CLR,CLR,0.00,WeatherDisplay:10.34,2013-03-18 07:24:00,
2013-03-18 01:29:00,24.8,12.5,29.78,North,360,3.0,3.0,59,0.00,CLR,CLR,0.00,WeatherDisplay:10.34,2013-03-18 07:29:00,
2013-03-18 01:34:00,24.6,12.7,29.78,NNE,13,2.0,3.0,60,0.00,CLR,CLR,0.00,WeatherDisplay:10.34,2013-03-18 07:34:00,
2013-03-18 01:39:00,24.5,12.6,29.78,North,349,6.0,7.0,60,0.00,CLR,CLR,0.00,WeatherDisplay:10.34,2013-03-18 07:39:00,
2013-03-18 01:44:00,24.3,12.4,29.78,NE,40,3.0,3.0,60,0.00,CLR,CLR,0.00,WeatherDisplay:10.34,2013-03-18 07:44:00,
2013-03-18 01:49:00,24.2,12.3,29.78,NE,40,0.0,0.0,60,0.00,CLR,CLR,0.00,WeatherDisplay:10.34,2013-03-18 07:49:00,
2013-03-18 01:54:00,24.1,12.2,29.79,NE,40,0.0,0.0,60,0.00,CLR,CLR,0.00,WeatherDisplay:10.34,2013-03-18 07:54:00,
2013-03-18 01:59:00,24.0,12.5,29.79,NE,40,0.0,2.0,61,0.00,CLR,CLR,0.00,WeatherDisplay:10.34,2013-03-18 07:59:00,
2013-03-18 02:04:00,23.9,12.4,29.79,NE,40,0.0,1.0,61,0.00,CLR,CLR,0.00,WeatherDisplay:10.34,2013-03-18 08:04:00,
2013-03-18 02:09:00,23.7,12.2,29.79,NE,36,2.0,3.0,61,0.00,CLR,CLR,0.00,WeatherDisplay:10.34,2013-03-18 08:09:00,
2013-03-18 02:14:00,23.6,11.7,29.79,NNW,327,1.0,2.0,60,0.00,CLR,CLR,0.00,WeatherDisplay:10.34,2013-03-18 08:14:00,
2013-03-18 02:19:00,23.4,11.5,29.79,WSW,241,1.0,1.0,60,0.00,CLR,CLR,0.00,WeatherDisplay:10.34,2013-03-18 08:19:00,
2013-03-18 02:24:00,23.2,11.4,29.78,WNW,298,0.0,0.0,60,0.00,CLR,CLR,0.00,WeatherDisplay:10.34,2013-03-18 08:24:00,
2013-03-18 02:29:00,23.0,11.2,29.78,WNW,298,0.0,0.0,60,0.00,CLR,CLR,0.00,WeatherDisplay:10.34,2013-03-18 08:29:00,
2013-03-18 02:34:00,22.9,11.1,29.78,WNW,298,2.0,5.0,60,0.00,CLR,CLR,0.00,WeatherDisplay:10.34,2013-03-18 08:34:00,
2013-03-18 02:39:00,22.8,11.3,29.78,WNW,298,1.0,2.0,61,0.00,CLR,CLR,0.00,WeatherDisplay:10.34,2013-03-18 08:39:00,
2013-03-18 02:44:00,22.5,10.7,29.78,WNW,298,4.0,4.0,60,0.00,CLR,CLR,0.00,WeatherDisplay:10.34,2013-03-18 08:44:00,
2013-03-18 02:49:00,22.0,11.0,29.78,WNW,298,2.0,3.0,62,0.00,CLR,CLR,0.00,WeatherDisplay:10.34,2013-03-18 08:49:00,
2013-03-18 02:54:00,21.7,10.7,29.79,WNW,298,0.0,1.0,62,0.00,CLR,CLR,0.00,WeatherDisplay:10.34,2013-03-18 08:54:00,
2013-03-18 02:59:00,21.5,10.8,29.79,WNW,298,1.0,1.0,63,0.00,CLR,CLR,0.00,WeatherDisplay:10.34,2013-03-18 08:59:00,
2013-03-18 03:04:00,21.2,10.6,29.79,WNW,298,1.0,2.0,63,0.00,CLR,CLR,0.00,WeatherDisplay:10.34,2013-03-18 09:04:00,
2013-03-18 03:09:00,21.0,10.4,29.79,WNW,298,0.0,1.0,63,0.00,CLR,CLR,0.00,WeatherDisplay:10.34,2013-03-18 09:09:00,
2013-03-18 03:14:00,20.9,10.3,29.79,WNW,298,0.0,0.0,63,0.00,CLR,CLR,0.00,WeatherDisplay:10.34,2013-03-18 09:14:00,
2013-03-18 03:19:00,20.7,9.7,29.79,WNW,298,0.0,0.0,62,0.00,CLR,CLR,0.00,WeatherDisplay:10.34,2013-03-18 09:19:00,
2013-03-18 03:24:00,20.6,9.6,29.79,WNW,298,0.0,0.0,62,0.00,CLR,CLR,0.00,WeatherDisplay:10.34,2013-03-18 09:24:00,
2013-03-18 03:29:00,20.3,9.3,29.79,WNW,298,2.0,2.0,62,0.00,CLR,CLR,0.00,WeatherDisplay:10.34,2013-03-18 09:29:00,
2013-03-18 03:34:00,20.1,9.5,29.79,WNW,298,1.0,1.0,63,0.00,CLR,CLR,0.00,WeatherDisplay:10.34,2013-03-18 09:34:00,
2013-03-18 03:39:00,20.0,9.4,29.79,WNW,298,1.0,2.0,63,0.00,CLR,CLR,0.00,WeatherDisplay:10.34,2013-03-18 09:39:00,
2013-03-18 03:44:00,20.0,9.4,29.79,WNW,298,0.0,1.0,63,0.00,CLR,CLR,0.00,WeatherDisplay:10.34,2013-03-18 09:44:00,
2013-03-18 03:49:00,19.9,9.3,29.79,WNW,298,0.0,1.0,63,0.00,CLR,CLR,0.00,WeatherDisplay:10.34,2013-03-18 09:49:00,
2013-03-18 03:54:00,20.0,9.1,29.79,WNW,298,0.0,1.0,62,0.00,CLR,CLR,0.00,WeatherDisplay:10.34,2013-03-18 09:54:00,
2013-03-18 03:59:00,20.0,9.1,29.79,WNW,298,0.0,1.0,62,0.00,CLR,CLR,0.00,WeatherDisplay:10.34,2013-03-18 09:59:00,
2013-03-18 04:04:00,20.1,8.8,29.79,WNW,298,0.0,0.0,61,0.00,CLR,CLR,0.00,WeatherDisplay:10.34,2013-03-18 10:04:00,
2013-03-18 04:09:00,20.2,8.9,29.79,SW,234,0.0,0.0,61,0.00,CLR,CLR,0.00,WeatherDisplay:10.34,2013-03-18 10:09:00,
2013-03-18 04:15:00,20.2,8.9,29.79,North,355,7.0,10.0,61,0.00,CLR,CLR,0.00,WeatherDisplay:10.34,2013-03-18 10:15:00,
2013-03-18 04:20:00,20.1,8.8,29.79,NNW,333,9.0,9.0,61,0.00,CLR,CLR,0.00,WeatherDisplay:10.34,2013-03-18 10:20:00,
2013-03-18 04:25:00,20.1,9.2,29.80,WNW,288,2.0,2.0,62,0.00,CLR,CLR,0.00,WeatherDisplay:10.34,2013-03-18 10:25:00,
2013-03-18 04:30:00,20.2,9.2,29.80,WNW,290,0.0,0.0,62,0.00,CLR,CLR,0.00,WeatherDisplay:10.34,2013-03-18 10:30:00,
2013-03-18 04:35:00,20.2,9.6,29.80,WNW,290,1.0,2.0,63,0.00,CLR,CLR,0.00,WeatherDisplay:10.34,2013-03-18 10:35:00,
2013-03-18 04:40:00,20.3,9.7,29.80,NW,317,4.0,0.0,63,0.00,CLR,CLR,0.00,WeatherDisplay:10.34,2013-03-18 10:40:00,
2013-03-18 04:45:00,20.4,10.1,29.80,NW,317,1.0,2.0,64,0.00,CLR,CLR,0.00,WeatherDisplay:10.34,2013-03-18 10:45:00,
2013-03-18 04:50:00,20.5,9.9,29.80,WNW,296,1.0,0.0,63,0.00,CLR,CLR,0.00,WeatherDisplay:10.34,2013-03-18 10:50:00,
2013-03-18 04:55:00,20.8,10.2,29.80,WSW,257,2.0,2.0,63,0.00,CLR,CLR,0.00,WeatherDisplay:10.34,2013-03-18 10:55:00,
2013-03-18 05:00:00,21.0,10.0,29.80,WSW,257,1.0,2.0,62,0.00,CLR,CLR,0.00,WeatherDisplay:10.34,2013-03-18 11:00:00,
2013-03-18 05:05:00,21.1,9.7,29.81,WSW,257,1.0,1.0,61,0.00,CLR,CLR,0.00,WeatherDisplay:10.34,2013-03-18 11:05:00,
2013-03-18 05:10:00,21.3,9.9,29.81,WNW,294,0.0,0.0,61,0.00,CLR,CLR,0.00,WeatherDisplay:10.34,2013-03-18 11:10:00,
2013-03-18 05:15:00,21.4,9.7,29.81,WNW,294,1.0,2.0,60,0.00,CLR,CLR,0.00,WeatherDisplay:10.34,2013-03-18 11:15:00,
2013-03-18 05:20:00,21.3,9.6,29.81,WNW,294,0.0,0.0,60,0.00,CLR,CLR,0.00,WeatherDisplay:10.34,2013-03-18 11:20:00,
2013-03-18 05:25:00,21.3,9.6,29.81,WNW,294,3.0,5.0,60,0.00,CLR,CLR,0.00,WeatherDisplay:10.34,2013-03-18 11:25:00,
2013-03-18 05:30:00,21.3,9.6,29.81,WNW,294,0.0,1.0,60,0.00,CLR,CLR,0.00,WeatherDisplay:10.34,2013-03-18 11:30:00,
2013-03-18 05:35:00,21.1,9.7,29.81,NNW,327,6.0,6.0,61,0.00,CLR,CLR,0.00,WeatherDisplay:10.34,2013-03-18 11:35:00,
2013-03-18 05:40:00,20.9,9.5,29.81,NNW,327,2.0,0.0,61,0.00,CLR,CLR,0.00,WeatherDisplay:10.34,2013-03-18 11:40:00,
2013-03-18 05:45:00,20.7,9.4,29.81,North,350,3.0,5.0,61,0.00,CLR,CLR,0.00,WeatherDisplay:10.34,2013-03-18 11:45:00,
2013-03-18 05:50:00,20.2,8.9,29.81,North,350,2.0,0.0,61,0.00,CLR,CLR,0.00,WeatherDisplay:10.34,2013-03-18 11:50:00,
2013-03-18 05:55:00,19.7,8.8,29.81,North,355,0.0,0.0,62,0.00,CLR,CLR,0.00,WeatherDisplay:10.34,2013-03-18 11:55:00,
2013-03-18 06:00:00,19.7,8.8,29.81,North,355,0.0,1.0,62,0.00,CLR,CLR,0.00,WeatherDisplay:10.34,2013-03-18 12:00:00,
2013-03-18 06:05:00,19.3,8.0,29.81,North,355,3.0,3.0,61,0.00,CLR,CLR,0.00,WeatherDisplay:10.34,2013-03-18 12:05:00,
2013-03-18 06:10:00,18.9,8.0,29.81,ESE,104,3.0,0.0,62,0.00,CLR,CLR,0.00,WeatherDisplay:10.34,2013-03-18 12:10:00,
2013-03-18 06:15:00,18.4,7.9,29.81,East,89,2.0,2.0,63,0.00,CLR,CLR,0.00,WeatherDisplay:10.34,2013-03-18 12:15:00,
2013-03-18 06:20:00,18.4,8.6,29.81,East,82,2.0,2.0,65,0.00,CLR,CLR,0.00,WeatherDisplay:10.34,2013-03-18 12:20:00,
2013-03-18 06:25:00,18.5,9.0,29.81,ENE,78,2.0,2.0,66,0.00,CLR,CLR,0.00,WeatherDisplay:10.34,2013-03-18 12:25:00,
2013-03-18 06:30:00,18.8,9.6,29.82,East,79,9.0,0.0,67,0.00,CLR,CLR,0.00,WeatherDisplay:10.34,2013-03-18 12:30:00,
2013-03-18 06:35:00,19.5,10.3,29.82,NE,51,2.0,2.0,67,0.00,CLR,CLR,0.00,WeatherDisplay:10.34,2013-03-18 12:35:00,
2013-03-18 06:40:00,19.7,10.2,29.82,ENE,70,7.0,9.0,66,0.00,CLR,CLR,0.00,WeatherDisplay:10.34,2013-03-18 12:40:00,
2013-03-18 06:45:00,20.2,10.6,29.82,East,88,2.0,2.0,66,0.00,CLR,CLR,0.00,WeatherDisplay:10.34,2013-03-18 12:45:00,
2013-03-18 06:50:00,20.0,9.8,29.82,ENE,73,0.0,1.0,64,0.00,CLR,CLR,0.00,WeatherDisplay:10.34,2013-03-18 12:50:00,
2013-03-18 06:55:00,19.9,9.7,29.82,South,178,5.0,7.0,64,0.00,CLR,CLR,0.00,WeatherDisplay:10.34,2013-03-18 12:55:00,
2013-03-18 07:00:00,19.6,9.0,29.81,South,178,1.0,1.0,63,0.00,OVC,OVC,0.00,WeatherDisplay:10.34,2013-03-18 13:00:00,
2013-03-18 07:05:00,18.9,8.4,29.81,South,178,4.0,4.0,63,0.00,OVC,OVC,0.00,WeatherDisplay:10.34,2013-03-18 13:05:00,
2013-03-18 07:10:00,18.5,8.7,29.81,South,178,0.0,0.0,65,0.00,OVC,OVC,0.00,WeatherDisplay:10.34,2013-03-18 13:10:00,
2013-03-18 07:15:00,18.3,8.8,29.81,South,178,2.0,2.0,66,0.00,OVC,OVC,0.00,WeatherDisplay:10.34,2013-03-18 13:15:00,
2013-03-18 07:20:00,18.1,8.6,29.82,South,178,1.0,1.0,66,0.00,OVC,OVC,0.00,WeatherDisplay:10.34,2013-03-18 13:20:00,
2013-03-18 07:25:00,18.0,8.5,29.82,South,178,1.0,1.0,66,0.00,OVC,OVC,0.00,WeatherDisplay:10.34,2013-03-18 13:25:00,
2013-03-18 07:30:00,17.4,8.3,29.82,NW,309,1.0,1.0,67,0.00,OVC,OVC,0.00,WeatherDisplay:10.34,2013-03-18 13:30:00,
2013-03-18 07:35:00,17.3,8.2,29.82,NW,309,0.0,1.0,67,0.00,CLR,CLR,0.00,WeatherDisplay:10.34,2013-03-18 13:35:00,
2013-03-18 07:40:00,17.2,8.1,29.82,NW,309,0.0,0.0,67,0.00,CLR,CLR,0.00,WeatherDisplay:10.34,2013-03-18 13:40:00,
2013-03-18 07:45:00,17.1,8.0,29.82,NW,309,0.0,0.0,67,0.00,CLR,CLR,0.00,WeatherDisplay:10.34,2013-03-18 13:45:00,
2013-03-18 07:50:00,17.1,8.3,29.83,NW,309,0.0,1.0,68,0.00,CLR,CLR,0.00,WeatherDisplay:10.34,2013-03-18 13:50:00,
2013-03-18 07:55:00,17.0,8.3,29.83,NW,310,3.0,3.0,68,0.00,CLR,CLR,0.00,WeatherDisplay:10.34,2013-03-18 13:55:00,
2013-03-18 08:00:00,17.0,8.6,29.82,NW,310,1.0,1.0,69,0.00,CLR,CLR,0.00,WeatherDisplay:10.34,2013-03-18 14:00:00,
2013-03-18 08:05:00,17.3,9.2,29.82,NW,310,1.0,1.0,70,0.00,CLR,CLR,0.00,WeatherDisplay:10.34,2013-03-18 14:05:00,
2013-03-18 08:10:00,17.5,9.4,29.82,West,262,6.0,6.0,70,0.00,CLR,CLR,0.00,WeatherDisplay:10.34,2013-03-18 14:10:00,
2013-03-18 08:15:00,17.8,9.7,29.82,West,271,2.0,2.0,70,0.00,CLR,CLR,0.00,WeatherDisplay:10.34,2013-03-18 14:15:00,
2013-03-18 08:20:00,18.2,10.1,29.82,WNW,288,0.0,1.0,70,0.00,CLR,CLR,0.00,WeatherDisplay:10.34,2013-03-18 14:20:00,
2013-03-18 08:25:00,18.8,10.9,29.82,WSW,258,4.0,5.0,71,0.00,CLR,CLR,0.00,WeatherDisplay:10.34,2013-03-18 14:25:00,
2013-03-18 08:30:00,19.4,11.5,29.82,WSW,258,1.0,1.0,71,0.00,CLR,CLR,0.00,WeatherDisplay:10.34,2013-03-18 14:30:00,
2013-03-18 08:35:00,20.2,12.3,29.82,WSW,257,0.0,0.0,71,0.00,CLR,CLR,0.00,WeatherDisplay:10.34,2013-03-18 14:35:00,
2013-03-18 08:40:00,21.2,12.6,29.82,WSW,257,1.0,2.0,69,0.00,CLR,CLR,0.00,WeatherDisplay:10.34,2013-03-18 14:40:00,
2013-03-18 08:45:00,22.3,13.3,29.83,NE,46,9.0,9.0,68,0.00,CLR,CLR,0.00,WeatherDisplay:10.34,2013-03-18 14:45:00,
2013-03-18 08:50:00,23.0,13.0,29.83,NE,36,7.0,7.0,65,0.00,CLR,CLR,0.00,WeatherDisplay:10.34,2013-03-18 14:50:00,
2013-03-18 08:55:00,23.6,12.8,29.83,ENE,57,6.0,6.0,63,0.00,SCT,SCT,0.00,WeatherDisplay:10.34,2013-03-18 14:55:00,
2013-03-18 09:00:00,24.0,12.5,29.83,ESE,115,5.0,5.0,61,0.00,SCT,SCT,0.00,WeatherDisplay:10.34,2013-03-18 15:00:00,
2013-03-18 09:05:00,24.4,12.9,29.83,NE,55,0.0,1.0,61,0.00,CLR,CLR,0.00,WeatherDisplay:10.34,2013-03-18 15:05:00,
2013-03-18 09:10:00,24.8,12.5,29.82,ENE,68,3.0,3.0,59,0.00,CLR,CLR,0.00,WeatherDisplay:10.34,2013-03-18 15:10:00,
2013-03-18 09:15:00,25.3,12.6,29.82,ENE,77,1.0,2.0,58,0.00,SCT,SCT,0.00,WeatherDisplay:10.34,2013-03-18 15:15:00,
2013-03-18 09:20:00,26.0,12.8,29.83,ENE,76,1.0,1.0,57,0.00,SCT,SCT,0.00,WeatherDisplay:10.34,2013-03-18 15:20:00,
2013-03-18 09:25:00,26.5,12.9,29.83,ENE,63,1.0,2.0,56,0.00,SCT,SCT,0.00,WeatherDisplay:10.34,2013-03-18 15:25:00,
2013-03-18 09:30:00,27.1,12.6,29.83,NE,36,3.0,3.0,54,0.00,SCT,SCT,0.00,WeatherDisplay:10.34,2013-03-18 15:30:00,
2013-03-18 09:35:00,27.9,13.4,29.83,ENE,63,3.0,3.0,54,0.00,SCT,SCT,0.00,WeatherDisplay:10.34,2013-03-18 15:35:00,
2013-03-18 09:40:00,28.5,13.5,29.83,NE,56,4.0,4.0,53,0.00,CLR,CLR,0.00,WeatherDisplay:10.34,2013-03-18 15:40:00,
2013-03-18 09:45:00,29.2,14.2,29.83,NE,55,2.0,2.0,53,0.00,FEW,FEW,0.00,WeatherDisplay:10.34,2013-03-18 15:45:00,
2013-03-18 09:50:00,29.9,14.4,29.83,NE,55,0.0,0.0,52,0.00,CLR,CLR,0.00,WeatherDisplay:10.34,2013-03-18 15:50:00,
2013-03-18 09:55:00,30.7,13.3,29.83,South,189,5.0,5.0,48,0.00,CLR,CLR,0.00,WeatherDisplay:10.34,2013-03-18 15:55:00,
2013-03-18 10:00:00,31.2,13.3,29.83,SSW,203,5.0,5.0,47,0.00,FEW,FEW,0.00,WeatherDisplay:10.34,2013-03-18 16:00:00,
2013-03-18 10:05:00,32.1,12.1,29.83,West,263,8.0,9.0,43,0.00,FEW,FEW,0.00,WeatherDisplay:10.34,2013-03-18 16:05:00,
2013-03-18 10:10:00,33.1,8.4,29.82,West,273,17.0,17.0,35,0.00,SCT,SCT,0.00,WeatherDisplay:10.34,2013-03-18 16:10:00,
2013-03-18 10:15:00,33.9,7.8,29.82,SW,227,20.0,20.0,33,0.00,FEW,FEW,0.00,WeatherDisplay:10.34,2013-03-18 16:15:00,
2013-03-18 10:20:00,34.4,6.8,29.82,SW,220,22.0,25.0,31,0.00,SCT,SCT,0.00,WeatherDisplay:10.34,2013-03-18 16:20:00,
2013-03-18 10:25:00,34.4,6.1,29.82,WSW,252,13.0,15.0,30,0.00,SCT,SCT,0.00,WeatherDisplay:10.34,2013-03-18 16:25:00,
2013-03-18 10:30:00,34.4,5.4,29.82,WSW,248,19.0,19.0,29,0.00,SCT,SCT,0.00,WeatherDisplay:10.34,2013-03-18 16:30:00,
2013-03-18 10:35:00,34.7,6.4,29.82,West,259,15.0,15.0,30,0.00,SCT,SCT,0.00,WeatherDisplay:10.34,2013-03-18 16:35:00,
2013-03-18 10:40:00,35.0,6.6,29.82,SW,215,22.0,24.0,30,0.00,CLR,CLR,0.00,WeatherDisplay:10.34,2013-03-18 16:40:00,
2013-03-18 10:45:00,35.0,6.6,29.82,WSW,238,21.0,28.0,30,0.00,FEW,FEW,0.00,WeatherDisplay:10.34,2013-03-18 16:45:00,
2013-03-18 10:50:00,35.4,7.0,29.81,SW,227,27.0,27.0,30,0.00,FEW,FEW,0.00,WeatherDisplay:10.34,2013-03-18 16:50:00,
2013-03-18 10:55:00,36.1,6.1,29.81,WSW,238,25.0,25.0,28,0.00,SCT,SCT,0.00,WeatherDisplay:10.34,2013-03-18 16:55:00,
2013-03-18 11:00:00,36.2,6.2,29.80,WSW,253,24.0,24.0,28,0.00,CLR,CLR,0.00,WeatherDisplay:10.34,2013-03-18 17:00:00,
2013-03-18 11:05:00,36.4,7.1,29.80,SW,231,23.0,23.0,29,0.00,CLR,CLR,0.00,WeatherDisplay:10.34,2013-03-18 17:05:00,
2013-03-18 11:10:00,37.3,7.1,29.82,SW,229,26.0,26.0,28,0.00,CLR,CLR,0.00,WeatherDisplay:10.34,2013-03-18 17:10:00,
2013-03-18 11:15:00,37.7,5.8,29.82,SW,233,16.0,16.0,26,0.00,CLR,CLR,0.00,WeatherDisplay:10.34,2013-03-18 17:15:00,
2013-03-18 11:20:00,38.0,6.1,29.81,SW,230,24.0,24.0,26,0.00,CLR,CLR,0.00,WeatherDisplay:10.34,2013-03-18 17:20:00,
2013-03-18 11:25:00,38.2,5.4,29.81,WSW,254,15.0,15.0,25,0.00,CLR,CLR,0.00,WeatherDisplay:10.34,2013-03-18 17:25:00,
2013-03-18 11:30:00,38.4,6.4,29.81,WSW,257,18.0,18.0,26,0.00,CLR,CLR,0.00,WeatherDisplay:10.34,2013-03-18 17:30:00,
2013-03-18 11:35:00,38.6,5.7,29.81,West,261,13.0,14.0,25,0.00,CLR,CLR,0.00,WeatherDisplay:10.34,2013-03-18 17:35:00,
2013-03-18 11:40:00,38.8,6.8,29.80,WSW,244,25.0,25.0,26,0.00,CLR,CLR,0.00,WeatherDisplay:10.34,2013-03-18 17:40:00,
2013-03-18 11:45:00,39.2,6.3,29.80,WSW,242,25.0,25.0,25,0.00,CLR,CLR,0.00,WeatherDisplay:10.34,2013-03-18 17:45:00,
2013-03-18 11:50:00,39.0,6.1,29.80,SSW,210,17.0,24.0,25,0.00,CLR,CLR,0.00,WeatherDisplay:10.34,2013-03-18 17:50:00,
2013-03-18 11:55:00,39.2,6.3,29.80,SW,226,21.0,28.0,25,0.00,CLR,CLR,0.00,WeatherDisplay:10.34,2013-03-18 17:55:00,
2013-03-18 12:00:00,39.3,5.5,29.80,WSW,257,7.0,8.0,24,0.00,CLR,CLR,0.00,WeatherDisplay:10.34,2013-03-18 18:00:00,
2013-03-18 12:05:00,39.8,5.9,29.80,WSW,245,19.0,23.0,24,0.00,CLR,CLR,0.00,WeatherDisplay:10.34,2013-03-18 18:05:00,
2013-03-18 12:10:00,39.8,5.9,29.80,SW,234,22.0,23.0,24,0.00,CLR,CLR,0.00,WeatherDisplay:10.34,2013-03-18 18:10:00,
2013-03-18 12:15:00,39.5,6.5,29.80,WSW,243,28.0,28.0,25,0.00,CLR,CLR,0.00,WeatherDisplay:10.34,2013-03-18 18:15:00,
2013-03-18 12:20:00,39.2,5.4,29.79,WSW,254,25.0,25.0,24,0.00,CLR,CLR,0.00,WeatherDisplay:10.34,2013-03-18 18:20:00,
2013-03-18 12:25:00,39.3,6.3,29.79,WSW,247,14.0,22.0,25,0.00,CLR,CLR,0.00,WeatherDisplay:10.34,2013-03-18 18:25:00,
2013-03-18 12:30:00,39.9,6.9,29.79,WSW,253,25.0,25.0,25,0.00,CLR,CLR,0.00,WeatherDisplay:10.34,2013-03-18 18:30:00,
2013-03-18 12:35:00,39.6,5.7,29.79,WSW,244,25.0,29.0,24,0.00,CLR,CLR,0.00,WeatherDisplay:10.34,2013-03-18 18:35:00,
2013-03-18 12:40:00,39.5,5.6,29.78,WSW,238,31.0,31.0,24,0.00,CLR,CLR,0.00,WeatherDisplay:10.34,2013-03-18 18:40:00,
2013-03-18 12:45:00,39.3,6.3,29.78,WSW,244,25.0,29.0,25,0.00,CLR,CLR,0.00,WeatherDisplay:10.34,2013-03-18 18:45:00,
2013-03-18 12:50:00,39.3,6.3,29.77,West,265,26.0,26.0,25,0.00,CLR,CLR,0.00,WeatherDisplay:10.34,2013-03-18 18:50:00,
2013-03-18 12:55:00,39.8,5.9,29.77,WSW,251,22.0,22.0,24,0.00,CLR,CLR,0.00,WeatherDisplay:10.34,2013-03-18 18:55:00,
2013-03-18 13:00:00,40.0,6.9,29.77,WNW,283,21.0,23.0,25,0.00,CLR,CLR,0.00,WeatherDisplay:10.34,2013-03-18 19:00:00,
2013-03-18 13:05:00,40.5,7.4,29.77,WSW,258,18.0,18.0,25,0.00,CLR,CLR,0.00,WeatherDisplay:10.34,2013-03-18 19:05:00,
2013-03-18 13:10:00,40.7,6.6,29.77,West,271,25.0,25.0,24,0.00,CLR,CLR,0.00,WeatherDisplay:10.34,2013-03-18 19:10:00,
2013-03-18 13:15:00,40.8,5.8,29.77,WSW,252,17.0,17.0,23,0.00,CLR,CLR,0.00,WeatherDisplay:10.34,2013-03-18 19:15:00,
2013-03-18 13:20:00,40.8,6.7,29.77,West,263,26.0,32.0,24,0.00,CLR,CLR,0.00,WeatherDisplay:10.34,2013-03-18 19:20:00,
2013-03-18 13:25:00,41.1,7.0,29.76,SW,215,23.0,23.0,24,0.00,CLR,CLR,0.00,WeatherDisplay:10.34,2013-03-18 19:25:00,
2013-03-18 13:30:00,41.1,7.0,29.77,West,259,23.0,28.0,24,0.00,CLR,CLR,0.00,WeatherDisplay:10.34,2013-03-18 19:30:00,
2013-03-18 13:35:00,41.2,7.1,29.77,WSW,256,29.0,29.0,24,0.00,CLR,CLR,0.00,WeatherDisplay:10.34,2013-03-18 19:35:00,
2013-03-18 13:40:00,41.3,7.2,29.77,West,267,27.0,27.0,24,0.00,CLR,CLR,0.00,WeatherDisplay:10.34,2013-03-18 19:40:00,
2013-03-18 13:45:00,41.6,7.4,29.77,WSW,241,30.0,30.0,24,0.00,CLR,CLR,0.00,WeatherDisplay:10.34,2013-03-18 19:45:00,
2013-03-18 13:50:00,41.5,7.3,29.77,WSW,246,24.0,0.0,24,0.00,CLR,CLR,0.00,WeatherDisplay:10.34,2013-03-18 19:50:00,
2013-03-18 13:56:00,41.9,7.7,29.76,WSW,252,23.0,31.0,24,0.00,CLR,CLR,0.00,WeatherDisplay:10.34,2013-03-18 19:56:00,
2013-03-18 14:01:00,42.2,7.9,29.76,SW,235,32.0,32.0,24,0.00,CLR,CLR,0.00,WeatherDisplay:10.34,2013-03-18 20:01:00,
2013-03-18 14:06:00,42.3,8.9,29.76,SW,236,18.0,23.0,25,0.00,CLR,CLR,0.00,WeatherDisplay:10.34,2013-03-18 20:06:00,
2013-03-18 14:12:00,42.4,8.1,29.76,SW,218,24.0,31.0,24,0.00,CLR,CLR,0.00,WeatherDisplay:10.34,2013-03-18 20:12:00,
2013-03-18 14:17:00,42.3,7.1,29.76,WSW,243,29.0,29.0,23,0.00,FEW,FEW,0.00,WeatherDisplay:10.34,2013-03-18 20:17:00,
2013-03-18 14:22:00,41.8,6.6,29.75,WSW,244,20.0,21.0,23,0.00,CLR,CLR,0.00,WeatherDisplay:10.34,2013-03-18 20:22:00,
2013-03-18 14:27:00,41.6,4.5,29.76,SW,218,20.0,25.0,21,0.00,SCT,SCT,0.00,WeatherDisplay:10.34,2013-03-18 20:27:00,
2013-03-18 14:33:00,41.0,4.0,29.75,West,266,23.0,25.0,21,0.00,SCT,SCT,0.00,WeatherDisplay:10.34,2013-03-18 20:33:00,
2013-03-18 14:38:00,40.6,5.6,29.75,WSW,246,21.0,29.0,23,0.00,CLR,CLR,0.00,WeatherDisplay:10.34,2013-03-18 20:38:00,
2013-03-18 14:43:00,40.9,5.9,29.75,WSW,244,21.0,23.0,23,0.00,BKN,BKN,0.00,WeatherDisplay:10.34,2013-03-18 20:43:00,
2013-03-18 14:48:00,40.2,6.2,29.75,SW,235,21.0,21.0,24,0.00,BKN,BKN,0.00,WeatherDisplay:10.34,2013-03-18 20:48:00,
2013-03-18 14:53:00,39.8,6.8,29.75,SW,234,16.0,16.0,25,0.00,BKN,BKN,0.00,WeatherDisplay:10.34,2013-03-18 20:53:00,
2013-03-18 14:58:00,40.5,7.4,29.75,West,259,18.0,22.0,25,0.00,CLR,CLR,0.00,WeatherDisplay:10.34,2013-03-18 20:58:00,
2013-03-18 15:03:00,41.7,7.5,29.76,West,259,13.0,21.0,24,0.00,CLR,CLR,0.00,WeatherDisplay:10.34,2013-03-18 21:03:00,
2013-03-18 15:08:00,42.3,6.1,29.76,SW,227,26.0,29.0,22,0.00,CLR,CLR,0.00,WeatherDisplay:10.34,2013-03-18 21:08:00,
2013-03-18 15:13:00,42.0,6.8,29.76,WSW,254,13.0,14.0,23,0.00,CLR,CLR,0.00,WeatherDisplay:10.34,2013-03-18 21:13:00,
2013-03-18 15:18:00,42.3,7.1,29.76,WSW,253,21.0,25.0,23,0.00,CLR,CLR,0.00,WeatherDisplay:10.34,2013-03-18 21:18:00,
2013-03-18 15:23:00,41.8,5.7,29.75,WSW,238,21.0,21.0,22,0.00,CLR,CLR,0.00,WeatherDisplay:10.34,2013-03-18 21:23:00,
2013-03-18 15:28:00,41.4,5.3,29.75,WSW,254,11.0,11.0,22,0.00,OVC,OVC,0.00,WeatherDisplay:10.34,2013-03-18 21:28:00,
2013-03-18 15:33:00,41.4,5.3,29.75,West,276,21.0,22.0,22,0.00,CLR,CLR,0.00,WeatherDisplay:10.34,2013-03-18 21:33:00,
2013-03-18 15:38:00,41.9,6.7,29.75,SW,236,19.0,24.0,23,0.00,CLR,CLR,0.00,WeatherDisplay:10.34,2013-03-18 21:38:00,
2013-03-18 15:43:00,42.4,6.2,29.74,WSW,248,22.0,23.0,22,0.00,CLR,CLR,0.00,WeatherDisplay:10.34,2013-03-18 21:43:00,
2013-03-18 15:49:00,42.4,6.2,29.74,WSW,246,17.0,22.0,22,0.00,CLR,CLR,0.00,WeatherDisplay:10.34,2013-03-18 21:49:00,
2013-03-18 15:54:00,42.7,7.4,29.74,SSW,211,23.0,23.0,23,0.00,CLR,CLR,0.00,WeatherDisplay:10.34,2013-03-18 21:54:00,
2013-03-18 15:59:00,43.1,8.7,29.74,WSW,252,19.0,21.0,24,0.00,CLR,CLR,0.00,WeatherDisplay:10.34,2013-03-18 21:59:00,
2013-03-18 16:04:00,42.9,7.6,29.74,WSW,253,15.0,16.0,23,0.00,CLR,CLR,0.00,WeatherDisplay:10.34,2013-03-18 22:04:00,
2013-03-18 16:09:00,43.2,7.8,29.75,West,268,19.0,24.0,23,0.00,CLR,CLR,0.00,WeatherDisplay:10.34,2013-03-18 22:09:00,
2013-03-18 16:14:00,43.0,7.7,29.75,WSW,237,28.0,28.0,23,0.00,CLR,CLR,0.00,WeatherDisplay:10.34,2013-03-18 22:14:00,
2013-03-18 16:19:00,42.7,8.4,29.75,SW,233,22.0,22.0,24,0.00,CLR,CLR,0.00,WeatherDisplay:10.34,2013-03-18 22:19:00,
2013-03-18 16:24:00,42.6,8.3,29.74,WSW,237,20.0,22.0,24,0.00,CLR,CLR,0.00,WeatherDisplay:10.34,2013-03-18 22:24:00,
2013-03-18 16:29:00,42.5,7.2,29.74,SW,230,20.0,22.0,23,0.00,CLR,CLR,0.00,WeatherDisplay:10.34,2013-03-18 22:29:00,
2013-03-18 16:34:00,42.4,7.2,29.74,WSW,255,17.0,21.0,23,0.00,CLR,CLR,0.00,WeatherDisplay:10.34,2013-03-18 22:34:00,
2013-03-18 16:39:00,42.2,7.9,29.74,SW,228,20.0,23.0,24,0.00,CLR,CLR,0.00,WeatherDisplay:10.34,2013-03-18 22:39:00,
2013-03-18 16:44:00,42.2,8.8,29.74,WSW,249,17.0,17.0,25,0.00,CLR,CLR,0.00,WeatherDisplay:10.34,2013-03-18 22:44:00,
2013-03-18 16:49:00,41.9,9.5,29.74,SW,230,23.0,28.0,26,0.00,CLR,CLR,0.00,WeatherDisplay:10.34,2013-03-18 22:49:00,
2013-03-18 16:54:00,42.0,7.8,29.75,West,264,20.0,20.0,24,0.00,CLR,CLR,0.00,WeatherDisplay:10.34,2013-03-18 22:54:00,
2013-03-18 16:59:00,42.0,8.7,29.75,WSW,242,20.0,26.0,25,0.00,CLR,CLR,0.00,WeatherDisplay:10.34,2013-03-18 22:59:00,
2013-03-18 17:04:00,41.6,8.3,29.75,West,268,24.0,24.0,25,0.00,CLR,CLR,0.00,WeatherDisplay:10.34,2013-03-18 23:04:00,
2013-03-18 17:09:00,41.6,8.3,29.75,WSW,253,17.0,22.0,25,0.00,CLR,CLR,0.00,WeatherDisplay:10.34,2013-03-18 23:09:00,
2013-03-18 17:14:00,41.5,8.2,29.75,SW,233,17.0,23.0,25,0.00,CLR,CLR,0.00,WeatherDisplay:10.34,2013-03-18 23:14:00,
2013-03-18 17:19:00,41.4,8.1,29.75,SW,236,14.0,15.0,25,0.00,CLR,CLR,0.00,WeatherDisplay:10.34,2013-03-18 23:19:00,
2013-03-18 17:24:00,41.5,8.2,29.76,WSW,240,18.0,18.0,25,0.00,CLR,CLR,0.00,WeatherDisplay:10.34,2013-03-18 23:24:00,
2013-03-18 17:29:00,41.7,8.4,29.76,WSW,252,25.0,31.0,25,0.00,CLR,CLR,0.00,WeatherDisplay:10.34,2013-03-18 23:29:00,
2013-03-18 17:34:00,41.1,9.6,29.76,WSW,240,25.0,25.0,27,0.00,CLR,CLR,0.00,WeatherDisplay:10.34,2013-03-18 23:34:00,
2013-03-18 17:39:00,40.4,9.8,29.76,SW,217,27.0,27.0,28,0.00,CLR,CLR,0.00,WeatherDisplay:10.34,2013-03-18 23:39:00,
2013-03-18 17:44:00,40.0,10.3,29.77,SW,235,25.0,31.0,29,0.00,CLR,CLR,0.00,WeatherDisplay:10.34,2013-03-18 23:44:00,
2013-03-18 17:49:00,39.5,11.3,29.77,West,261,24.0,26.0,31,0.00,CLR,CLR,0.00,WeatherDisplay:10.34,2013-03-18 23:49:00,
2013-03-18 17:54:00,39.2,11.0,29.77,SW,236,19.0,25.0,31,0.00,CLR,CLR,0.00,WeatherDisplay:10.34,2013-03-18 23:54:00,
2013-03-18 17:59:00,39.0,11.6,29.77,WSW,240,12.0,13.0,32,0.00,CLR,CLR,0.00,WeatherDisplay:10.34,2013-03-18 23:59:00,
2013-03-18 18:04:00,39.2,11.8,29.77,WSW,246,16.0,23.0,32,0.00,CLR,CLR,0.00,WeatherDisplay:10.34,2013-03-19 00:04:00,
2013-03-18 18:09:00,39.1,11.7,29.77,West,267,23.0,25.0,32,0.00,CLR,CLR,0.00,WeatherDisplay:10.34,2013-03-19 00:09:00,
2013-03-18 18:14:00,38.7,12.0,29.77,SW,236,21.0,25.0,33,0.00,FEW,FEW,0.00,WeatherDisplay:10.34,2013-03-19 00:14:00,
2013-03-18 18:19:00,38.0,12.1,29.77,SW,232,16.0,17.0,34,0.00,FEW,FEW,0.00,WeatherDisplay:10.34,2013-03-19 00:19:00,
2013-03-18 18:24:00,37.7,10.4,29.76,WSW,246,22.0,22.0,32,0.00,FEW,FEW,0.00,WeatherDisplay:10.34,2013-03-19 00:24:00,
2013-03-18 18:29:00,37.6,9.6,29.76,WSW,257,21.0,22.0,31,0.00,SCT,SCT,0.00,WeatherDisplay:10.34,2013-03-19 00:29:00,
2013-03-18 18:34:00,37.5,10.3,29.77,WSW,241,19.0,19.0,32,0.00,SCT,SCT,0.00,WeatherDisplay:10.34,2013-03-19 00:34:00,
2013-03-18 18:39:00,37.3,10.8,29.77,WSW,245,19.0,23.0,33,0.00,FEW,FEW,0.00,WeatherDisplay:10.34,2013-03-19 00:39:00,
2013-03-18 18:44:00,37.2,10.7,29.77,SW,232,16.0,16.0,33,0.00,FEW,FEW,0.00,WeatherDisplay:10.34,2013-03-19 00:44:00,
2013-03-18 18:49:00,36.9,11.1,29.77,WSW,244,10.0,21.0,34,0.00,FEW,FEW,0.00,WeatherDisplay:10.34,2013-03-19 00:49:00,
2013-03-18 18:54:00,36.7,11.6,29.78,West,271,19.0,22.0,35,0.00,FEW,FEW,0.00,WeatherDisplay:10.34,2013-03-19 00:54:00,
2013-03-18 18:59:00,36.5,11.4,29.78,WSW,244,13.0,14.0,35,0.00,FEW,FEW,0.00,WeatherDisplay:10.34,2013-03-19 00:59:00,
2013-03-18 19:04:00,36.3,11.9,29.78,West,260,14.0,15.0,36,0.00,CLR,CLR,0.00,WeatherDisplay:10.34,2013-03-19 01:04:00,
2013-03-18 19:09:00,36.2,12.4,29.78,WSW,238,11.0,13.0,37,0.00,CLR,CLR,0.00,WeatherDisplay:10.34,2013-03-19 01:09:00,
2013-03-18 19:14:00,36.0,12.2,29.78,West,263,12.0,12.0,37,0.00,CLR,CLR,0.00,WeatherDisplay:10.34,2013-03-19 01:14:00,
2013-03-18 19:19:00,35.9,12.7,29.78,West,274,15.0,15.0,38,0.00,OVC,OVC,0.00,WeatherDisplay:10.34,2013-03-19 01:19:00,
2013-03-18 19:24:00,35.9,12.7,29.78,WSW,257,9.0,12.0,38,0.00,OVC,OVC,0.00,WeatherDisplay:10.34,2013-03-19 01:24:00,
2013-03-18 19:29:00,35.7,12.5,29.78,West,271,6.0,7.0,38,0.00,OVC,OVC,0.00,WeatherDisplay:10.34,2013-03-19 01:29:00,
2013-03-18 19:34:00,35.5,12.4,29.79,West,260,7.0,10.0,38,0.00,OVC,OVC,0.00,WeatherDisplay:10.34,2013-03-19 01:34:00,
2013-03-18 19:39:00,35.3,12.2,29.79,WNW,298,8.0,10.0,38,0.00,OVC,OVC,0.00,WeatherDisplay:10.34,2013-03-19 01:39:00,
2013-03-18 19:44:00,35.2,12.1,29.79,WNW,286,10.0,12.0,38,0.00,OVC,OVC,0.00,WeatherDisplay:10.34,2013-03-19 01:44:00,
2013-03-18 19:49:00,35.1,12.0,29.79,West,267,8.0,12.0,38,0.00,OVC,OVC,0.00,WeatherDisplay:10.34,2013-03-19 01:49:00,
2013-03-18 19:54:00,35.1,12.6,29.79,West,267,4.0,4.0,39,0.00,OVC,OVC,0.00,WeatherDisplay:10.34,2013-03-19 01:54:00,
2013-03-18 19:59:00,34.9,12.4,29.79,WNW,299,5.0,5.0,39,0.00,OVC,OVC,0.00,WeatherDisplay:10.34,2013-03-19 01:59:00,
2013-03-18 20:04:00,34.7,12.2,29.80,NNW,338,8.0,13.0,39,0.00,CLR,CLR,0.00,WeatherDisplay:10.34,2013-03-19 02:04:00,
2013-03-18 20:09:00,34.4,11.4,29.80,NW,325,11.0,12.0,38,0.00,CLR,CLR,0.00,WeatherDisplay:10.34,2013-03-19 02:09:00,
2013-03-18 20:14:00,34.2,11.8,29.79,North,360,8.0,17.0,39,0.00,CLR,CLR,0.00,WeatherDisplay:10.34,2013-03-19 02:14:00,
2013-03-18 20:19:00,34.0,12.2,29.79,NW,304,12.0,15.0,40,0.00,CLR,CLR,0.00,WeatherDisplay:10.34,2013-03-19 02:19:00,
2013-03-18 20:24:00,33.8,12.6,29.80,WNW,302,11.0,12.0,41,0.00,CLR,CLR,0.00,WeatherDisplay:10.34,2013-03-19 02:24:00,
2013-03-18 20:29:00,33.4,13.8,29.80,NNW,345,18.0,22.0,44,0.00,CLR,CLR,0.00,WeatherDisplay:10.34,2013-03-19 02:29:00,
2013-03-18 20:34:00,32.9,14.4,29.81,ENE,61,9.0,12.0,46,0.00,CLR,CLR,0.00,WeatherDisplay:10.34,2013-03-19 02:34:00,
2013-03-18 20:39:00,32.5,15.0,29.81,NW,325,12.0,14.0,48,0.00,CLR,CLR,0.00,WeatherDisplay:10.34,2013-03-19 02:39:00,
2013-03-18 20:44:00,32.1,16.4,29.82,NW,325,14.0,20.0,52,0.00,CLR,CLR,0.00,WeatherDisplay:10.34,2013-03-19 02:44:00,
2013-03-18 20:49:00,31.7,17.4,29.83,North,355,9.0,12.0,55,0.00,CLR,CLR,0.00,WeatherDisplay:10.34,2013-03-19 02:49:00,
2013-03-18 20:54:00,31.3,18.6,29.82,NNW,336,15.0,17.0,59,0.00,CLR,CLR,0.00,WeatherDisplay:10.34,2013-03-19 02:54:00,
2013-03-18 20:59:00,30.8,19.3,29.82,NW,311,12.0,20.0,62,0.00,CLR,CLR,0.00,WeatherDisplay:10.34,2013-03-19 02:59:00,
2013-03-18 21:04:00,30.5,19.8,29.82,NNW,336,11.0,13.0,64,0.00,CLR,CLR,0.00,WeatherDisplay:10.34,2013-03-19 03:04:00,
2013-03-18 21:09:00,30.5,19.8,29.82,North,11,12.0,15.0,64,0.00,CLR,CLR,0.00,WeatherDisplay:10.34,2013-03-19 03:09:00,
2013-03-18 21:14:00,30.4,20.4,29.83,NW,310,11.0,11.0,66,0.00,CLR,CLR,0.00,WeatherDisplay:10.34,2013-03-19 03:14:00,
2013-03-18 21:19:00,30.2,20.6,29.83,NW,323,12.0,15.0,67,0.00,CLR,CLR,0.00,WeatherDisplay:10.34,2013-03-19 03:19:00,
2013-03-18 21:24:00,30.0,20.7,29.83,NNW,330,12.0,13.0,68,0.00,CLR,CLR,0.00,WeatherDisplay:10.34,2013-03-19 03:24:00,
2013-03-18 21:29:00,29.8,20.9,29.83,WNW,302,15.0,16.0,69,0.00,CLR,CLR,0.00,WeatherDisplay:10.34,2013-03-19 03:29:00,
2013-03-18 21:34:00,29.7,20.8,29.82,WNW,296,19.0,21.0,69,0.00,CLR,CLR,0.00,WeatherDisplay:10.34,2013-03-19 03:34:00,
2013-03-18 21:39:00,29.6,20.7,29.82,WNW,300,9.0,14.0,69,0.00,CLR,CLR,0.00,WeatherDisplay:10.34,2013-03-19 03:39:00,
2013-03-18 21:44:00,29.6,20.3,29.82,NNW,338,9.0,14.0,68,0.00,CLR,CLR,0.00,WeatherDisplay:10.34,2013-03-19 03:44:00,
2013-03-18 21:49:00,29.6,20.0,29.82,West,277,9.0,12.0,67,0.00,CLR,CLR,0.00,WeatherDisplay:10.34,2013-03-19 03:49:00,
2013-03-18 21:54:00,29.7,20.1,29.83,West,268,7.0,8.0,67,0.00,CLR,CLR,0.00,WeatherDisplay:10.34,2013-03-19 03:54:00,
2013-03-18 21:59:00,29.7,20.1,29.83,NNW,341,7.0,9.0,67,0.00,CLR,CLR,0.00,WeatherDisplay:10.34,2013-03-19 03:59:00,
2013-03-18 22:00:00,29.7,20.1,29.83,NW,309,7.0,13.0,67,0.00,CLR,CLR,0.00,WeatherDisplay:10.34,2013-03-19 04:00:00,
2013-03-18 22:03:00,29.7,20.1,29.83,WNW,290,13.0,14.0,67,0.00,CLR,CLR,0.00,WeatherDisplay:10.34,2013-03-19 04:03:00,
2013-03-18 22:08:00,29.8,19.8,29.83,WNW,293,9.0,9.0,66,0.00,CLR,CLR,0.00,WeatherDisplay:10.34,2013-03-19 04:08:00,
2013-03-18 22:13:00,29.9,19.9,29.83,WNW,302,7.0,10.0,66,0.00,CLR,CLR,0.00,WeatherDisplay:10.34,2013-03-19 04:13:00,
2013-03-18 22:18:00,29.9,19.9,29.83,NW,311,7.0,9.0,66,0.00,CLR,CLR,0.00,WeatherDisplay:10.34,2013-03-19 04:18:00,
2013-03-18 22:23:00,29.9,19.6,29.83,NW,304,10.0,12.0,65,0.00,CLR,CLR,0.00,WeatherDisplay:10.34,2013-03-19 04:23:00,
2013-03-18 22:28:00,29.9,19.6,29.83,NW,321,8.0,10.0,65,0.00,CLR,CLR,0.00,WeatherDisplay:10.34,2013-03-19 04:28:00,
2013-03-18 22:33:00,29.8,19.5,29.82,NW,318,13.0,17.0,65,0.00,CLR,CLR,0.00,WeatherDisplay:10.34,2013-03-19 04:33:00,
2013-03-18 22:38:00,29.8,18.7,29.82,WNW,290,8.0,9.0,63,0.00,CLR,CLR,0.00,WeatherDisplay:10.34,2013-03-19 04:38:00,
2013-03-18 22:43:00,29.9,18.8,29.83,NW,309,8.0,8.0,63,0.00,CLR,CLR,0.00,WeatherDisplay:10.34,2013-03-19 04:43:00,
2013-03-18 22:48:00,29.8,18.7,29.83,West,268,3.0,5.0,63,0.00,CLR,CLR,0.00,WeatherDisplay:10.34,2013-03-19 04:48:00,
2013-03-18 22:53:00,29.7,18.6,29.84,NW,307,2.0,5.0,63,0.00,CLR,CLR,0.00,WeatherDisplay:10.34,2013-03-19 04:53:00,
2013-03-18 22:58:00,29.5,18.8,29.84,West,280,0.0,3.0,64,0.00,CLR,CLR,0.00,WeatherDisplay:10.34,2013-03-19 04:58:00,
2013-03-18 23:03:00,29.3,18.6,29.84,WNW,289,1.0,1.0,64,0.00,CLR,CLR,0.00,WeatherDisplay:10.34,2013-03-19 05:03:00,
2013-03-18 23:08:00,29.2,18.2,29.84,WSW,257,2.0,2.0,63,0.00,CLR,CLR,0.00,WeatherDisplay:10.34,2013-03-19 05:08:00,
2013-03-18 23:13:00,28.8,17.0,29.85,SW,222,4.0,4.0,61,0.00,CLR,CLR,0.00,WeatherDisplay:10.34,2013-03-19 05:13:00,
2013-03-18 23:18:00,28.2,16.1,29.85,South,183,7.0,8.0,60,0.00,CLR,CLR,0.00,WeatherDisplay:10.34,2013-03-19 05:18:00,
2013-03-18 23:23:00,27.9,16.9,29.86,South,177,9.0,9.0,63,0.00,CLR,CLR,0.00,WeatherDisplay:10.34,2013-03-19 05:23:00,
2013-03-18 23:28:00,28.1,17.5,29.86,SSW,202,11.0,12.0,64,0.00,CLR,CLR,0.00,WeatherDisplay:10.34,2013-03-19 05:28:00,
2013-03-18 23:33:00,28.3,17.7,29.85,SSE,157,5.0,7.0,64,0.00,CLR,CLR,0.00,WeatherDisplay:10.34,2013-03-19 05:33:00,
2013-03-18 23:38:00,28.3,17.7,29.85,SSE,158,3.0,3.0,64,0.00,CLR,CLR,0.00,WeatherDisplay:10.34,2013-03-19 05:38:00,
2013-03-18 23:43:00,28.1,17.1,29.85,SSE,158,3.0,3.0,63,0.00,CLR,CLR,0.00,WeatherDisplay:10.34,2013-03-19 05:43:00,
2013-03-18 23:48:00,27.9,17.3,29.85,SE,136,0.0,0.0,64,0.00,CLR,CLR,0.00,WeatherDisplay:10.34,2013-03-19 05:48:00,
2013-03-18 23:53:00,27.9,16.9,29.86,SE,136,0.0,0.0,63,0.00,CLR,CLR,0.00,WeatherDisplay:10.34,2013-03-19 05:53:00,
2013-03-18 23:58:00,27.8,16.8,29.86,SE,136,0.0,1.0,63,0.00,CLR,CLR,0.00,WeatherDisplay:10.34,2013-03-19 05:58:00,